createdAt,value
2017-01-25T03:09:26.942Z,0
2017-01-25T03:10:11.643Z,0
2017-01-25T03:11:11.633Z,0
2017-01-25T03:12:11.593Z,0
2017-01-25T03:13:11.575Z,0
2017-01-25T03:14:11.564Z,0
2017-01-25T03:15:11.535Z,0
2017-01-25T03:16:11.520Z,0
2017-01-25T03:17:11.497Z,0
2017-01-25T03:18:11.478Z,0
2017-01-25T03:19:11.462Z,0
2017-01-25T03:20:11.435Z,0
2017-01-25T03:21:11.428Z,0
2017-01-25T03:22:11.396Z,0
2017-01-25T03:23:11.378Z,0
2017-01-25T03:24:11.361Z,0
2017-01-25T03:25:11.346Z,0
2017-01-25T03:26:11.315Z,0
2017-01-25T03:27:11.296Z,0
2017-01-25T03:28:11.281Z,0
2017-01-25T03:29:11.266Z,0
2017-01-25T03:30:11.243Z,0
2017-01-25T03:31:11.215Z,0
2017-01-25T03:32:11.204Z,0
2017-01-25T03:33:11.180Z,0
2017-01-25T03:34:11.164Z,0
2017-01-25T03:35:11.137Z,0
2017-01-25T03:36:11.121Z,0
2017-01-25T03:37:11.102Z,0
2017-01-25T03:38:11.075Z,0
2017-01-25T03:39:11.057Z,0
2017-01-25T03:40:11.038Z,0
2017-01-25T03:41:11.020Z,0
2017-01-25T03:42:10.995Z,0
2017-01-25T03:43:10.982Z,0
2017-01-25T03:44:10.953Z,0
2017-01-25T03:45:10.945Z,0
2017-01-25T03:46:10.923Z,0
2017-01-25T03:47:10.900Z,0
2017-01-25T03:48:10.870Z,0
2017-01-25T03:49:10.854Z,0
2017-01-25T03:50:10.834Z,0
2017-01-25T03:51:10.815Z,0
2017-01-25T03:52:10.806Z,0
2017-01-25T03:53:10.784Z,0
2017-01-25T03:54:10.756Z,0
2017-01-25T03:55:10.744Z,0
2017-01-25T03:56:10.720Z,0
2017-01-25T03:57:10.695Z,0
2017-01-25T03:58:10.676Z,0
2017-01-25T03:59:10.654Z,0
2017-01-25T04:00:10.641Z,0
2017-01-25T04:01:10.615Z,0
2017-01-25T04:02:10.594Z,0
2017-01-25T04:03:10.576Z,0
2017-01-25T04:04:10.563Z,0
2017-01-25T04:05:10.539Z,0
2017-01-25T04:06:10.544Z,0
2017-01-25T04:07:10.494Z,0
2017-01-25T04:08:10.481Z,0
2017-01-25T04:09:10.456Z,0
2017-01-25T04:10:10.461Z,0
2017-01-25T04:11:10.421Z,0
2017-01-25T04:12:10.399Z,0
2017-01-25T04:13:10.388Z,0
2017-01-25T04:14:10.353Z,0
2017-01-25T04:15:10.340Z,0
2017-01-25T04:16:10.324Z,0
2017-01-25T04:17:10.303Z,0
2017-01-25T04:18:10.279Z,0
2017-01-25T04:19:10.261Z,0
2017-01-25T04:20:10.239Z,0
2017-01-25T04:21:10.212Z,0
2017-01-25T04:22:10.193Z,0
2017-01-25T04:23:10.189Z,0
2017-01-25T04:24:10.159Z,0
2017-01-25T04:25:10.138Z,0
2017-01-25T04:26:10.128Z,0
2017-01-25T04:27:10.099Z,0
2017-01-25T04:28:10.082Z,0
2017-01-25T04:29:10.059Z,0
2017-01-25T04:30:10.037Z,0
2017-01-25T04:31:10.020Z,0
2017-01-25T04:32:09.997Z,0
2017-01-25T04:33:09.984Z,0
2017-01-25T04:34:09.955Z,0
2017-01-25T04:35:09.944Z,0
2017-01-25T04:36:09.927Z,0
2017-01-25T04:37:09.927Z,0
2017-01-25T04:38:09.896Z,0
2017-01-25T04:39:09.861Z,0
2017-01-25T04:40:09.838Z,0
2017-01-25T04:41:09.820Z,0
2017-01-25T04:42:09.803Z,0
2017-01-25T04:43:09.782Z,0
2017-01-25T04:44:09.781Z,0
2017-01-25T04:45:09.742Z,0
2017-01-25T04:46:09.721Z,0
2017-01-25T04:47:09.705Z,0
2017-01-25T04:48:09.691Z,0
2017-01-25T04:49:09.662Z,0
2017-01-25T04:50:09.641Z,0
2017-01-25T04:51:09.624Z,0
2017-01-25T04:52:09.595Z,0
2017-01-25T04:53:09.599Z,0
2017-01-25T04:54:09.565Z,0
2017-01-25T04:55:09.550Z,0
2017-01-25T04:56:09.528Z,0
2017-01-25T04:57:10.300Z,0
2017-01-25T04:58:09.487Z,0
2017-01-25T04:59:09.472Z,0
2017-01-25T05:00:09.448Z,0
2017-01-25T05:01:09.828Z,0
2017-01-25T05:02:09.408Z,0
2017-01-25T05:03:09.379Z,0
2017-01-25T05:04:09.365Z,0
2017-01-25T05:05:09.342Z,0
2017-01-25T05:06:09.332Z,0
2017-01-25T05:07:09.304Z,0
2017-01-25T05:08:09.280Z,0
2017-01-25T05:09:09.270Z,0
2017-01-25T05:10:09.243Z,0
2017-01-25T05:11:09.225Z,0
2017-01-25T05:12:09.202Z,0
2017-01-25T05:13:09.181Z,0
2017-01-25T05:14:09.177Z,0
2017-01-25T05:15:09.143Z,0
2017-01-25T05:16:09.151Z,0
2017-01-25T05:17:09.102Z,0
2017-01-25T05:18:09.098Z,0
2017-01-25T05:19:09.066Z,0
2017-01-25T05:20:09.051Z,0
2017-01-25T05:21:09.032Z,0
2017-01-25T05:22:09.007Z,0
2017-01-25T05:23:08.984Z,0
2017-01-25T05:24:08.971Z,0
2017-01-25T05:25:08.954Z,0
2017-01-25T05:26:08.923Z,0
2017-01-25T05:27:08.914Z,0
2017-01-25T05:28:08.891Z,0
2017-01-25T05:29:08.874Z,0
2017-01-25T05:30:08.853Z,0
2017-01-25T05:31:08.828Z,0
2017-01-25T05:32:08.807Z,0
2017-01-25T05:33:08.786Z,0
2017-01-25T05:34:08.766Z,0
2017-01-25T05:35:09.141Z,0
2017-01-25T05:36:08.732Z,0
2017-01-25T05:37:08.713Z,0
2017-01-25T05:38:08.695Z,0
2017-01-25T05:39:08.668Z,0
2017-01-25T05:40:08.656Z,0
2017-01-25T05:41:08.632Z,0
2017-01-25T05:42:08.612Z,0
2017-01-25T05:43:08.588Z,0
2017-01-25T05:44:08.577Z,0
2017-01-25T05:45:08.550Z,0
2017-01-25T05:46:08.534Z,0
2017-01-25T05:47:08.512Z,0
2017-01-25T05:48:08.493Z,0
2017-01-25T05:49:08.472Z,0
2017-01-25T05:50:08.456Z,0
2017-01-25T05:51:08.465Z,0
2017-01-25T05:52:08.415Z,0
2017-01-25T05:53:08.394Z,0
2017-01-25T05:54:08.371Z,0
2017-01-25T05:55:08.356Z,0
2017-01-25T05:56:08.341Z,0
2017-01-25T05:57:08.316Z,0
2017-01-25T05:58:08.309Z,0
2017-01-25T05:59:08.275Z,0
2017-01-25T06:00:08.255Z,0
2017-01-25T06:01:08.239Z,0
2017-01-25T06:02:08.218Z,0
2017-01-25T06:03:08.203Z,0
2017-01-25T06:04:08.190Z,0
2017-01-25T06:05:08.160Z,0
2017-01-25T06:06:08.133Z,0
2017-01-25T06:07:08.120Z,0
2017-01-25T06:08:08.098Z,0
2017-01-25T06:09:08.090Z,0
2017-01-25T06:10:08.063Z,0
2017-01-25T06:11:08.044Z,0
2017-01-25T06:12:08.025Z,0
2017-01-25T06:13:08.002Z,0
2017-01-25T06:14:07.979Z,0
2017-01-25T06:15:07.962Z,0
2017-01-25T06:16:07.947Z,0
2017-01-25T06:17:07.931Z,0
2017-01-25T06:18:07.907Z,0
2017-01-25T06:19:07.921Z,0
2017-01-25T06:20:07.862Z,0
2017-01-25T06:21:07.844Z,0
2017-01-25T06:22:07.820Z,0
2017-01-25T06:23:07.803Z,0
2017-01-25T06:24:07.791Z,4
2017-01-25T06:25:07.782Z,0
2017-01-25T06:26:07.747Z,0
2017-01-25T06:27:07.726Z,4
2017-01-25T06:28:07.699Z,4
2017-01-25T06:29:07.679Z,4
2017-01-25T06:30:08.065Z,4
2017-01-25T06:31:07.649Z,4
2017-01-25T06:32:07.631Z,4
2017-01-25T06:33:07.610Z,4
2017-01-25T06:34:07.582Z,8
2017-01-25T06:35:07.564Z,12
2017-01-25T06:36:07.552Z,12
2017-01-25T06:37:07.522Z,12
2017-01-25T06:38:07.503Z,16
2017-01-25T06:39:07.485Z,16
2017-01-25T06:40:08.288Z,20
2017-01-25T06:41:07.852Z,24
2017-01-25T06:42:07.427Z,28
2017-01-25T06:43:07.410Z,32
2017-01-25T06:44:07.391Z,36
2017-01-25T06:45:07.372Z,40
2017-01-25T06:46:07.351Z,44
2017-01-25T06:47:07.327Z,48
2017-01-25T06:48:07.315Z,52
2017-01-25T06:49:07.295Z,60
2017-01-25T06:50:07.274Z,72
2017-01-25T06:51:07.654Z,76
2017-01-25T06:52:07.235Z,88
2017-01-25T06:53:07.216Z,96
2017-01-25T06:54:07.193Z,108
2017-01-25T06:55:07.168Z,120
2017-01-25T06:56:07.146Z,128
2017-01-25T06:57:07.135Z,140
2017-01-25T06:58:07.115Z,148
2017-01-25T06:59:07.096Z,160
2017-01-25T07:00:07.075Z,168
2017-01-25T07:01:07.056Z,176
2017-01-25T07:02:07.030Z,184
2017-01-25T07:03:07.018Z,200
2017-01-25T07:04:07.003Z,208
2017-01-25T07:05:07.370Z,220
2017-01-25T07:06:06.957Z,232
2017-01-25T07:07:06.934Z,244
2017-01-25T07:08:06.923Z,260
2017-01-25T07:09:06.909Z,280
2017-01-25T07:10:06.878Z,292
2017-01-25T07:11:06.888Z,304
2017-01-25T07:12:06.839Z,320
2017-01-25T07:13:06.810Z,336
2017-01-25T07:14:06.819Z,348
2017-01-25T07:15:06.784Z,368
2017-01-25T07:16:06.753Z,392
2017-01-25T07:17:06.740Z,408
2017-01-25T07:18:06.713Z,424
2017-01-25T07:19:06.709Z,452
2017-01-25T07:20:06.681Z,472
2017-01-25T07:21:06.656Z,492
2017-01-25T07:22:06.638Z,520
2017-01-25T07:23:06.612Z,548
2017-01-25T07:24:06.594Z,564
2017-01-25T07:25:06.585Z,572
2017-01-25T07:26:06.559Z,584
2017-01-25T07:27:06.529Z,608
2017-01-25T07:28:06.522Z,644
2017-01-25T07:29:06.899Z,676
2017-01-25T07:30:06.486Z,708
2017-01-25T07:31:06.457Z,740
2017-01-25T07:32:06.442Z,756
2017-01-25T07:33:06.417Z,756
2017-01-25T07:34:06.403Z,784
2017-01-25T07:35:06.389Z,828
2017-01-25T07:36:06.367Z,860
2017-01-25T07:37:06.341Z,872
2017-01-25T07:38:06.327Z,892
2017-01-25T07:39:06.303Z,904
2017-01-25T07:40:06.276Z,912
2017-01-25T07:41:06.260Z,936
2017-01-25T07:42:06.241Z,960
2017-01-25T07:43:06.222Z,1000
2017-01-25T07:44:06.202Z,1044
2017-01-25T07:45:06.180Z,1092
2017-01-25T07:46:06.174Z,1148
2017-01-25T07:47:06.145Z,1168
2017-01-25T07:48:06.124Z,1176
2017-01-25T07:49:06.102Z,1220
2017-01-25T07:50:06.082Z,1272
2017-01-25T07:51:06.065Z,1316
2017-01-25T07:52:06.048Z,1364
2017-01-25T07:53:06.457Z,1400
2017-01-25T07:54:06.013Z,1404
2017-01-25T07:55:05.987Z,1416
2017-01-25T07:56:05.973Z,1460
2017-01-25T07:57:05.951Z,1496
2017-01-25T07:58:05.925Z,1508
2017-01-25T07:59:05.905Z,1524
2017-01-25T08:00:05.881Z,1580
2017-01-25T08:01:05.873Z,1588
2017-01-25T08:02:05.846Z,1596
2017-01-25T08:03:05.829Z,1640
2017-01-25T08:04:05.819Z,1700
2017-01-25T08:05:05.788Z,1740
2017-01-25T08:06:05.771Z,1764
2017-01-25T08:07:05.750Z,1804
2017-01-25T08:08:05.734Z,1832
2017-01-25T08:09:05.744Z,1852
2017-01-25T08:10:05.693Z,1868
2017-01-25T08:11:05.677Z,1892
2017-01-25T08:12:05.655Z,1896
2017-01-25T08:13:05.639Z,1924
2017-01-25T08:14:05.625Z,1980
2017-01-25T08:15:05.595Z,1996
2017-01-25T08:16:05.579Z,2008
2017-01-25T08:17:05.561Z,2052
2017-01-25T08:18:05.541Z,2120
2017-01-25T08:19:05.518Z,2200
2017-01-25T08:20:05.505Z,2256
2017-01-25T08:21:05.533Z,2280
2017-01-25T08:22:05.467Z,2304
2017-01-25T08:23:05.450Z,2360
2017-01-25T08:24:05.415Z,2416
2017-01-25T08:25:05.412Z,2440
2017-01-25T08:26:05.379Z,2416
2017-01-25T08:27:05.369Z,2432
2017-01-25T08:28:05.349Z,2480
2017-01-25T08:29:05.324Z,2552
2017-01-25T08:30:05.314Z,2560
2017-01-25T08:31:05.287Z,2552
2017-01-25T08:32:05.293Z,2608
2017-01-25T08:33:05.258Z,2644
2017-01-25T08:34:05.234Z,2644
2017-01-25T08:35:05.209Z,2708
2017-01-25T08:36:05.596Z,2776
2017-01-25T08:37:05.177Z,2744
2017-01-25T08:38:05.158Z,2736
2017-01-25T08:39:05.152Z,2776
2017-01-25T08:40:05.120Z,2792
2017-01-25T08:41:05.099Z,2736
2017-01-25T08:42:05.088Z,2708
2017-01-25T08:43:05.069Z,2768
2017-01-25T08:44:05.049Z,2852
2017-01-25T08:45:05.023Z,2912
2017-01-25T08:46:05.008Z,2996
2017-01-25T08:47:04.989Z,2976
2017-01-25T08:48:04.966Z,2904
2017-01-25T08:49:04.948Z,2988
2017-01-25T08:50:04.933Z,3156
2017-01-25T08:51:04.913Z,3204
2017-01-25T08:52:04.898Z,3180
2017-01-25T08:53:04.877Z,3196
2017-01-25T08:54:04.858Z,3220
2017-01-25T08:55:04.836Z,3212
2017-01-25T08:56:04.819Z,3232
2017-01-25T08:57:04.795Z,3316
2017-01-25T08:58:04.774Z,3408
2017-01-25T08:59:04.762Z,3452
2017-01-25T09:00:04.748Z,3476
2017-01-25T09:01:04.720Z,3500
2017-01-25T09:02:04.710Z,3540
2017-01-25T09:03:04.687Z,3628
2017-01-25T09:04:04.661Z,3716
2017-01-25T09:05:04.651Z,3832
2017-01-25T09:06:04.630Z,3852
2017-01-25T09:07:04.608Z,3860
2017-01-25T09:08:04.595Z,3872
2017-01-25T09:09:04.593Z,3912
2017-01-25T09:10:04.551Z,3912
2017-01-25T09:11:04.537Z,3928
2017-01-25T09:12:04.526Z,4052
2017-01-25T09:13:04.501Z,4176
2017-01-25T09:14:04.485Z,4148
2017-01-25T09:15:04.472Z,4144
2017-01-25T09:16:04.445Z,4196
2017-01-25T09:17:05.219Z,4116
2017-01-25T09:18:04.403Z,4044
2017-01-25T09:19:04.390Z,3992
2017-01-25T09:20:04.378Z,3996
2017-01-25T09:21:04.344Z,4008
2017-01-25T09:22:04.332Z,4004
2017-01-25T09:23:04.313Z,4048
2017-01-25T09:24:04.289Z,4084
2017-01-25T09:25:04.276Z,4192
2017-01-25T09:26:04.255Z,4304
2017-01-25T09:27:04.239Z,4188
2017-01-25T09:28:04.224Z,4112
2017-01-25T09:29:04.201Z,4068
2017-01-25T09:30:04.200Z,4084
2017-01-25T09:31:04.164Z,4172
2017-01-25T09:32:04.148Z,4364
2017-01-25T09:33:04.131Z,4284
2017-01-25T09:34:04.105Z,4216
2017-01-25T09:35:04.087Z,4212
2017-01-25T09:36:04.065Z,4188
2017-01-25T09:37:04.052Z,4280
2017-01-25T09:38:04.028Z,4348
2017-01-25T09:39:04.057Z,4276
2017-01-25T09:40:03.993Z,4228
2017-01-25T09:41:03.981Z,4188
2017-01-25T09:42:03.960Z,4188
2017-01-25T09:43:03.933Z,4140
2017-01-25T09:44:03.918Z,4032
2017-01-25T09:45:03.907Z,4064
2017-01-25T09:46:03.878Z,4020
2017-01-25T09:47:03.867Z,3972
2017-01-25T09:48:03.847Z,4200
2017-01-25T09:49:03.829Z,4344
2017-01-25T09:50:03.809Z,4368
2017-01-25T09:51:03.798Z,4476
2017-01-25T09:52:03.782Z,4564
2017-01-25T09:53:03.759Z,4484
2017-01-25T09:54:03.734Z,4492
2017-01-25T09:55:03.724Z,4608
2017-01-25T09:56:03.713Z,4672
2017-01-25T09:57:03.685Z,4620
2017-01-25T09:58:03.664Z,4548
2017-01-25T09:59:03.648Z,4468
2017-01-25T10:00:03.628Z,4488
2017-01-25T10:01:03.609Z,4664
2017-01-25T10:02:03.988Z,4856
2017-01-25T10:03:03.577Z,4992
2017-01-25T10:04:03.557Z,4924
2017-01-25T10:05:03.539Z,4820
2017-01-25T10:06:03.513Z,4912
2017-01-25T10:07:03.498Z,5168
2017-01-25T10:08:03.484Z,5116
2017-01-25T10:09:03.459Z,4916
2017-01-25T10:10:03.446Z,4960
2017-01-25T10:11:03.424Z,5016
2017-01-25T10:12:03.406Z,4848
2017-01-25T10:13:03.395Z,5000
2017-01-25T10:14:03.772Z,5228
2017-01-25T10:15:03.760Z,5188
2017-01-25T10:16:03.331Z,5124
2017-01-25T10:17:03.310Z,5268
2017-01-25T10:18:03.326Z,5592
2017-01-25T10:19:03.279Z,5728
2017-01-25T10:20:03.256Z,5636
2017-01-25T10:21:03.241Z,5476
2017-01-25T10:22:03.236Z,5388
2017-01-25T10:23:03.210Z,5476
2017-01-25T10:24:03.589Z,5704
2017-01-25T10:25:03.166Z,5840
2017-01-25T10:26:03.153Z,5660
2017-01-25T10:27:03.143Z,5356
2017-01-25T10:28:03.122Z,5244
2017-01-25T10:29:03.103Z,5292
2017-01-25T10:30:03.084Z,5564
2017-01-25T10:31:03.069Z,5756
2017-01-25T10:32:03.047Z,5716
2017-01-25T10:33:03.028Z,5596
2017-01-25T10:34:03.008Z,5528
2017-01-25T10:35:02.992Z,5692
2017-01-25T10:36:02.976Z,6044
2017-01-25T10:37:02.975Z,6248
2017-01-25T10:38:02.960Z,6244
2017-01-25T10:39:02.923Z,6080
2017-01-25T10:40:02.912Z,6060
2017-01-25T10:41:02.892Z,6260
2017-01-25T10:42:02.899Z,6556
2017-01-25T10:43:02.853Z,6504
2017-01-25T10:44:02.839Z,6180
2017-01-25T10:45:02.820Z,6160
2017-01-25T10:46:02.803Z,6480
2017-01-25T10:47:02.793Z,6744
2017-01-25T10:48:02.762Z,6868
2017-01-25T10:49:02.749Z,7044
2017-01-25T10:50:02.762Z,7228
2017-01-25T10:51:02.717Z,7376
2017-01-25T10:52:02.702Z,7324
2017-01-25T10:53:02.688Z,7144
2017-01-25T10:54:02.668Z,7020
2017-01-25T10:55:02.647Z,7044
2017-01-25T10:56:02.634Z,7040
2017-01-25T10:57:02.621Z,6880
2017-01-25T10:58:02.592Z,6972
2017-01-25T10:59:02.580Z,6976
2017-01-25T11:00:02.566Z,6908
2017-01-25T11:01:02.545Z,7024
2017-01-25T11:02:02.926Z,6900
2017-01-25T11:03:02.512Z,6820
2017-01-25T11:04:02.497Z,7064
2017-01-25T11:05:02.477Z,7280
2017-01-25T11:06:02.456Z,7056
2017-01-25T11:07:02.440Z,6976
2017-01-25T11:08:02.432Z,7100
2017-01-25T11:09:02.408Z,7292
2017-01-25T11:10:02.791Z,7208
2017-01-25T11:11:02.376Z,6884
2017-01-25T11:12:02.360Z,6740
2017-01-25T11:13:02.338Z,6984
2017-01-25T11:14:02.323Z,7280
2017-01-25T11:15:02.309Z,7148
2017-01-25T11:16:02.298Z,6864
2017-01-25T11:17:02.269Z,6672
2017-01-25T11:18:02.254Z,6816
2017-01-25T11:19:02.239Z,7052
2017-01-25T11:20:02.231Z,7152
2017-01-25T11:21:02.203Z,7284
2017-01-25T11:22:02.194Z,7368
2017-01-25T11:23:02.171Z,7340
2017-01-25T11:24:02.151Z,7348
2017-01-25T11:25:02.159Z,7336
2017-01-25T11:26:02.133Z,7184
2017-01-25T11:27:02.106Z,7160
2017-01-25T11:28:02.095Z,6952
2017-01-25T11:29:02.073Z,6880
2017-01-25T11:30:02.063Z,6776
2017-01-25T11:31:02.043Z,6812
2017-01-25T11:32:02.419Z,6920
2017-01-25T11:33:02.025Z,7112
2017-01-25T11:34:01.986Z,7464
2017-01-25T11:35:01.970Z,7924
2017-01-25T11:36:01.953Z,7916
2017-01-25T11:37:01.933Z,7696
2017-01-25T11:38:01.921Z,7424
2017-01-25T11:39:01.904Z,7080
2017-01-25T11:40:01.891Z,6936
2017-01-25T11:41:01.874Z,6912
2017-01-25T11:42:01.852Z,7052
2017-01-25T11:43:01.843Z,7020
2017-01-25T11:44:01.826Z,7060
2017-01-25T11:45:01.805Z,6928
2017-01-25T11:46:01.795Z,6700
2017-01-25T11:47:01.802Z,6580
2017-01-25T11:48:01.757Z,6752
2017-01-25T11:49:01.737Z,6956
2017-01-25T11:50:01.725Z,6984
2017-01-25T11:51:01.708Z,6892
2017-01-25T11:52:01.683Z,6600
2017-01-25T11:53:01.682Z,6540
2017-01-25T11:54:01.653Z,6732
2017-01-25T11:55:01.640Z,6676
2017-01-25T11:56:01.626Z,6648
2017-01-25T11:57:02.007Z,6904
2017-01-25T11:58:01.607Z,7204
2017-01-25T11:59:01.572Z,7184
2017-01-25T12:00:01.560Z,7020
2017-01-25T12:01:01.576Z,7028
2017-01-25T12:02:01.543Z,6972
2017-01-25T12:03:01.512Z,6772
2017-01-25T12:04:01.498Z,6492
2017-01-25T12:05:01.474Z,6396
2017-01-25T12:06:01.464Z,6676
2017-01-25T12:07:01.457Z,6920
2017-01-25T12:08:01.464Z,6772
2017-01-25T12:09:01.421Z,6604
2017-01-25T12:10:01.400Z,6632
2017-01-25T12:11:01.385Z,6680
2017-01-25T12:12:01.359Z,6700
2017-01-25T12:13:01.352Z,6764
2017-01-25T12:14:01.337Z,6816
2017-01-25T12:15:01.311Z,6736
2017-01-25T12:16:01.307Z,6496
2017-01-25T12:17:01.284Z,6624
2017-01-25T12:18:01.267Z,6820
2017-01-25T12:19:01.252Z,6832
2017-01-25T12:20:01.231Z,6752
2017-01-25T12:21:01.214Z,6720
2017-01-25T12:22:01.688Z,6576
2017-01-25T12:23:01.194Z,6472
2017-01-25T12:24:01.169Z,6668
2017-01-25T12:25:01.148Z,6812
2017-01-25T12:26:01.137Z,7112
2017-01-25T12:27:01.123Z,7132
2017-01-25T12:28:01.108Z,7176
2017-01-25T12:29:01.081Z,6736
2017-01-25T12:30:01.484Z,6696
2017-01-25T12:31:01.052Z,6676
2017-01-25T12:32:01.037Z,7020
2017-01-25T12:33:01.019Z,7252
2017-01-25T12:34:01.016Z,6916
2017-01-25T12:35:00.991Z,6620
2017-01-25T12:36:00.971Z,6608
2017-01-25T12:37:00.967Z,6460
2017-01-25T12:38:00.943Z,6256
2017-01-25T12:39:00.927Z,6324
2017-01-25T12:40:00.909Z,6620
2017-01-25T12:41:00.905Z,6748
2017-01-25T12:42:00.878Z,6712
2017-01-25T12:43:00.853Z,6540
2017-01-25T12:44:00.843Z,6692
2017-01-25T12:45:00.827Z,6760
2017-01-25T12:46:00.816Z,6576
2017-01-25T12:47:00.787Z,6464
2017-01-25T12:48:00.776Z,6528
2017-01-25T12:49:00.765Z,6556
2017-01-25T12:50:00.749Z,6768
2017-01-25T12:51:00.735Z,6364
2017-01-25T12:52:00.716Z,6276
2017-01-25T12:53:00.697Z,6112
2017-01-25T12:54:01.083Z,6292
2017-01-25T12:55:00.664Z,6652
2017-01-25T12:56:00.659Z,6768
2017-01-25T12:57:00.639Z,6420
2017-01-25T12:58:00.626Z,6428
2017-01-25T12:59:00.601Z,6872
2017-01-25T13:00:00.583Z,6672
2017-01-25T13:01:00.572Z,6464
2017-01-25T13:02:00.554Z,6444
2017-01-25T13:03:00.533Z,6572
2017-01-25T13:04:00.524Z,6688
2017-01-25T13:05:00.502Z,6496
2017-01-25T13:06:00.493Z,6372
2017-01-25T13:07:00.474Z,6336
2017-01-25T13:08:00.453Z,6192
2017-01-25T13:09:00.454Z,5984
2017-01-25T13:10:00.421Z,6048
2017-01-25T13:11:00.402Z,6300
2017-01-25T13:12:00.392Z,6092
2017-01-25T13:13:00.384Z,5892
2017-01-25T13:14:00.358Z,5616
2017-01-25T13:15:00.340Z,5532
2017-01-25T13:16:00.327Z,5736
2017-01-25T13:17:00.318Z,5800
2017-01-25T13:18:00.291Z,5628
2017-01-25T13:19:00.279Z,5640
2017-01-25T13:20:00.666Z,5752
2017-01-25T13:21:00.248Z,6196
2017-01-25T13:22:00.256Z,6940
2017-01-25T13:23:00.212Z,7160
2017-01-25T13:24:00.205Z,6784
2017-01-25T13:25:00.183Z,6128
2017-01-25T13:26:00.161Z,5912
2017-01-25T13:27:00.153Z,5780
2017-01-25T13:28:00.133Z,5524
2017-01-25T13:29:00.157Z,5344
2017-01-25T13:30:00.101Z,5576
2017-01-25T13:31:00.088Z,6016
2017-01-25T13:32:00.068Z,6328
2017-01-25T13:33:00.053Z,5864
2017-01-25T13:34:00.440Z,5364
2017-01-25T13:35:00.018Z,5168
2017-01-25T13:36:00.011Z,5152
2017-01-25T13:36:59.990Z,5004
2017-01-25T13:37:59.981Z,4988
2017-01-25T13:38:59.962Z,4944
2017-01-25T13:39:59.936Z,4728
2017-01-25T13:40:59.953Z,4852
2017-01-25T13:41:59.906Z,4868
2017-01-25T13:42:59.903Z,4476
2017-01-25T13:43:59.874Z,4488
2017-01-25T13:44:59.893Z,4700
2017-01-25T13:45:59.839Z,5164
2017-01-25T13:46:59.826Z,5524
2017-01-25T13:48:00.216Z,5180
2017-01-25T13:48:59.789Z,4676
2017-01-25T13:49:59.780Z,4664
2017-01-25T13:50:59.757Z,4840
2017-01-25T13:51:59.748Z,4564
2017-01-25T13:52:59.731Z,4400
2017-01-25T13:53:59.716Z,4340
2017-01-25T13:54:59.700Z,4312
2017-01-25T13:55:59.680Z,4148
2017-01-25T13:56:59.677Z,3988
2017-01-25T13:57:59.679Z,4056
2017-01-25T13:58:59.627Z,4036
2017-01-25T13:59:59.620Z,4072
2017-01-25T14:00:59.592Z,4044
2017-01-25T14:01:59.579Z,3908
2017-01-25T14:02:59.571Z,3748
2017-01-25T14:03:59.540Z,3808
2017-01-25T14:04:59.529Z,3820
2017-01-25T14:05:59.524Z,3684
2017-01-25T14:06:59.509Z,3556
2017-01-25T14:07:59.485Z,3648
2017-01-25T14:08:59.464Z,3800
2017-01-25T14:09:59.451Z,3628
2017-01-25T14:10:59.431Z,3476
2017-01-25T14:11:59.420Z,3436
2017-01-25T14:12:59.402Z,3296
2017-01-25T14:13:59.383Z,3208
2017-01-25T14:14:59.767Z,3180
2017-01-25T14:15:59.347Z,3200
2017-01-25T14:16:59.336Z,3060
2017-01-25T14:17:59.429Z,2992
2017-01-25T14:18:59.297Z,2964
2017-01-25T14:19:59.280Z,3104
2017-01-25T14:20:59.266Z,3236
2017-01-25T14:21:59.258Z,3180
2017-01-25T14:22:59.233Z,3188
2017-01-25T14:23:59.222Z,3384
2017-01-25T14:24:59.387Z,3456
2017-01-25T14:25:59.429Z,3320
2017-01-25T14:26:59.297Z,3136
2017-01-25T14:27:59.157Z,2952
2017-01-25T14:28:59.160Z,2796
2017-01-25T14:29:59.110Z,2720
2017-01-25T14:30:59.195Z,2752
2017-01-25T14:31:59.437Z,2648
2017-01-25T14:32:59.117Z,2524
2017-01-25T14:33:59.583Z,2436
2017-01-25T14:34:59.026Z,2508
2017-01-25T14:35:59.014Z,2452
2017-01-25T14:36:58.992Z,2328
2017-01-25T14:37:58.981Z,2324
2017-01-25T14:38:58.969Z,2468
2017-01-25T14:39:58.945Z,2448
2017-01-25T14:40:58.936Z,2328
2017-01-25T14:41:58.910Z,2284
2017-01-25T14:42:58.901Z,2312
2017-01-25T14:43:58.883Z,2288
2017-01-25T14:44:58.865Z,2136
2017-01-25T14:45:58.877Z,2028
2017-01-25T14:46:58.830Z,1956
2017-01-25T14:47:58.816Z,1940
2017-01-25T14:48:58.796Z,1960
2017-01-25T14:49:58.781Z,1864
2017-01-25T14:50:58.771Z,1812
2017-01-25T14:51:58.748Z,1788
2017-01-25T14:52:58.723Z,1764
2017-01-25T14:53:58.717Z,1756
2017-01-25T14:54:58.695Z,1776
2017-01-25T14:55:58.682Z,1740
2017-01-25T14:56:58.663Z,1688
2017-01-25T14:57:58.642Z,1628
2017-01-25T14:58:58.627Z,1532
2017-01-25T14:59:58.613Z,1480
2017-01-25T15:00:58.603Z,1456
2017-01-25T15:01:58.576Z,1452
2017-01-25T15:02:58.559Z,1396
2017-01-25T15:03:58.541Z,1308
2017-01-25T15:04:58.524Z,1216
2017-01-25T15:05:58.504Z,1200
2017-01-25T15:06:58.491Z,1196
2017-01-25T15:07:58.471Z,1184
2017-01-25T15:08:58.461Z,1128
2017-01-25T15:09:58.846Z,1084
2017-01-25T15:10:58.426Z,1024
2017-01-25T15:11:58.408Z,964
2017-01-25T15:12:58.384Z,964
2017-01-25T15:13:58.376Z,956
2017-01-25T15:14:58.353Z,1000
2017-01-25T15:15:58.337Z,996
2017-01-25T15:16:58.315Z,956
2017-01-25T15:17:58.304Z,896
2017-01-25T15:18:58.285Z,812
2017-01-25T15:19:58.263Z,776
2017-01-25T15:20:58.270Z,732
2017-01-25T15:21:58.242Z,688
2017-01-25T15:22:58.227Z,664
2017-01-25T15:23:58.194Z,648
2017-01-25T15:24:58.183Z,632
2017-01-25T15:25:58.162Z,616
2017-01-25T15:26:58.148Z,584
2017-01-25T15:27:58.130Z,540
2017-01-25T15:28:58.112Z,508
2017-01-25T15:29:58.128Z,488
2017-01-25T15:30:58.081Z,472
2017-01-25T15:31:58.060Z,448
2017-01-25T15:32:58.038Z,432
2017-01-25T15:33:58.025Z,412
2017-01-25T15:34:58.397Z,384
2017-01-25T15:35:57.998Z,368
2017-01-25T15:36:57.974Z,352
2017-01-25T15:37:57.956Z,336
2017-01-25T15:38:57.931Z,312
2017-01-25T15:39:57.917Z,292
2017-01-25T15:40:57.897Z,268
2017-01-25T15:41:57.881Z,252
2017-01-25T15:42:57.863Z,236
2017-01-25T15:43:57.842Z,224
2017-01-25T15:44:57.826Z,204
2017-01-25T15:45:57.813Z,188
2017-01-25T15:46:57.800Z,176
2017-01-25T15:47:57.775Z,160
2017-01-25T15:48:57.750Z,148
2017-01-25T15:49:57.742Z,140
2017-01-25T15:50:57.718Z,128
2017-01-25T15:51:57.703Z,116
2017-01-25T15:52:57.686Z,104
2017-01-25T15:53:57.668Z,96
2017-01-25T15:54:57.647Z,88
2017-01-25T15:55:57.624Z,80
2017-01-25T15:56:57.619Z,68
2017-01-25T15:57:57.598Z,60
2017-01-25T15:58:57.574Z,52
2017-01-25T15:59:57.568Z,48
2017-01-25T16:00:57.564Z,44
2017-01-25T16:01:57.525Z,40
2017-01-25T16:02:57.501Z,32
2017-01-25T16:03:57.492Z,28
2017-01-25T16:04:57.468Z,28
2017-01-25T16:05:57.460Z,24
2017-01-25T16:06:57.435Z,20
2017-01-25T16:07:57.415Z,16
2017-01-25T16:08:57.397Z,16
2017-01-25T16:09:57.381Z,12
2017-01-25T16:10:57.364Z,12
2017-01-25T16:11:57.344Z,12
2017-01-25T16:12:57.325Z,8
2017-01-25T16:13:57.308Z,8
2017-01-25T16:14:57.293Z,4
2017-01-25T16:15:57.280Z,4
2017-01-25T16:16:57.257Z,4
2017-01-25T16:17:57.234Z,4
2017-01-25T16:18:57.617Z,4
2017-01-25T16:19:57.608Z,4
2017-01-25T16:20:57.181Z,4
2017-01-25T16:21:57.170Z,0
2017-01-25T16:22:57.196Z,4
2017-01-25T16:23:57.136Z,4
2017-01-25T16:24:57.147Z,0
2017-01-25T16:25:57.090Z,0
2017-01-25T16:26:57.099Z,0
2017-01-25T16:27:57.057Z,0
2017-01-25T16:28:57.038Z,0
2017-01-25T16:29:57.025Z,0
2017-01-25T16:30:57.009Z,0
2017-01-25T16:31:56.983Z,0
2017-01-25T16:32:56.966Z,0
2017-01-25T16:33:57.346Z,0
2017-01-25T16:34:56.929Z,0
2017-01-25T16:35:56.950Z,0
2017-01-25T16:36:56.903Z,0
2017-01-25T16:37:56.876Z,0
2017-01-25T16:38:56.864Z,0
2017-01-25T16:39:56.844Z,0
2017-01-25T16:40:56.821Z,0
2017-01-25T16:41:56.799Z,0
2017-01-25T16:42:56.802Z,0
2017-01-25T16:43:56.768Z,0
2017-01-25T16:44:56.748Z,0
2017-01-25T16:45:56.735Z,0
2017-01-25T16:46:56.720Z,0
2017-01-25T16:47:56.696Z,0
2017-01-25T16:48:56.678Z,0
2017-01-25T16:49:56.654Z,0
2017-01-25T16:50:56.642Z,0
2017-01-25T16:51:56.628Z,0
2017-01-25T16:52:56.602Z,0
2017-01-25T16:53:56.587Z,0
2017-01-25T16:54:56.626Z,0
2017-01-25T16:55:56.549Z,0
2017-01-25T16:56:56.531Z,0
2017-01-25T16:57:56.520Z,0